RJNA(METAR)
12/11 17:00
METAR RJNA 110800Z 32003KT 9999 -RA FEW030 BKN040 BKN120 10/M02 Q1023
RMK 1CU030 7SC040 7AC120 A3023=
戻る
トップページへ戻る
IMOC Co,.Ltd.